Date,TemperatureHighF,TemperatureAvgF,TemperatureLowF,DewpointHighF,DewpointAvgF,DewpointLowF,HumidityHigh,HumidityAvg,HumidityLow,PressureMaxIn,PressureMinIn,WindSpeedMaxMPH,WindSpeedAvgMPH,GustSpeedMaxMPH,PrecipitationSumIn
2013-1-1,23.3,9.0,-0.6,22.1,6.2,-3.6,97,88,81,29.87,29.63,17,5,17,0.00
2013-1-2,4.3,-3.8,-13.2,0.3,-7.4,-16.9,88,84,78,30.23,29.86,16,2,16,0.00
2013-1-3,4.1,-4.9,-15.0,1.0,-8.6,-18.7,89,84,75,30.27,29.99,6,1,6,0.00
2013-1-4,23.9,17.2,3.5,22.7,15.5,0.7,95,93,89,29.99,29.71,20,3,20,0.00
2013-1-5,23.5,13.9,4.4,22.3,11.2,1.6,100,89,80,30.24,29.69,16,4,16,0.00
2013-1-6,23.0,17.0,5.6,21.1,15.2,2.4,95,92,85,30.21,29.93,6,1,6,0.01
2013-1-7,22.3,11.5,1.1,21.1,8.6,-1.7,95,88,77,30.37,29.96,7,1,7,0.01
2013-1-8,30.1,22.8,7.2,24.5,19.5,4.4,96,87,75,30.38,30.20,14,2,14,0.00
2013-1-9,30.9,27.7,21.4,29.3,24.6,19.7,100,88,75,30.39,29.86,16,4,16,0.11
2013-1-10,29.6,26.0,16.6,28.2,23.3,14.7,96,90,81,30.54,29.88,26,5,26,0.01
2013-1-11,30.3,21.4,7.7,24.9,16.7,5.1,95,83,64,30.56,30.17,15,4,15,0.02
2013-1-12,37.9,32.5,27.1,35.3,31.2,24.8,97,95,90,30.18,30.06,9,2,10,0.09
2013-1-13,50.4,41.9,30.3,44.4,38.9,29.6,100,90,69,30.13,29.86,13,3,13,0.00
2013-1-14,47.7,36.4,25.2,46.6,33.4,19.0,100,89,69,30.19,29.74,23,4,23,0.02
2013-1-15,25.2,21.2,15.4,20.8,17.5,13.2,93,86,78,30.30,30.19,10,1,10,0.00
2013-1-16,25.1,20.6,16.7,23.9,18.5,14.7,95,91,84,30.25,29.75,9,2,9,0.00
2013-1-17,25.3,12.5,-4.7,23.8,8.8,-9.5,95,85,68,30.15,29.73,16,3,16,0.00
2013-1-18,6.8,-1.6,-10.4,-3.0,-8.8,-14.1,85,71,54,30.40,30.11,16,2,16,0.00
2013-1-19,28.7,18.0,3.5,25.7,14.2,-3.4,93,85,69,30.33,29.82,9,2,9,0.00
2013-1-20,38.1,23.0,2.2,29.9,18.5,-3.6,96,83,64,29.82,29.38,33,7,33,0.04
2013-1-21,8.7,1.8,-6.7,-1.7,-5.1,-10.3,86,73,56,30.02,29.82,20,2,20,0.00
2013-1-22,7.5,0.1,-9.9,1.8,-4.1,-14.4,88,82,74,30.02,29.83,13,2,13,0.00
2013-1-23,-8.9,-14.9,-20.6,-12.8,-20.7,-25.1,92,75,63,30.19,30.02,15,2,15,0.00
2013-1-24,-1.8,-11.7,-20.8,-10.7,-17.4,-25.3,92,76,57,30.34,30.10,22,4,22,0.00
2013-1-25,3.7,-3.4,-8.5,-3.9,-8.4,-12.7,83,79,67,30.36,30.16,14,2,14,0.00
2013-1-26,6.4,-0.0,-7.7,-1.3,-6.0,-11.2,86,76,58,30.26,30.12,13,3,13,0.00
2013-1-27,8.2,0.4,-5.9,0.0,-5.1,-9.5,86,78,61,30.55,30.26,16,2,16,0.00
2013-1-28,19.3,7.2,-7.1,12.5,1.0,-11.6,91,77,43,30.53,30.11,13,2,13,0.00
2013-1-29,31.1,19.9,5.2,24.3,15.4,2.4,93,83,71,30.24,30.06,15,4,15,0.11
2013-1-30,51.6,40.9,26.5,49.1,39.5,24.0,97,95,89,30.06,29.28,23,7,23,0.59
2013-1-31,49.3,32.7,10.0,48.4,29.4,6.6,100,88,62,29.35,28.72,34,8,35,0.78
2013-2-1,10.0,4.5,-1.8,6.8,0.7,-5.3,88,84,79,30.10,29.34,16,3,16,0.00
2013-2-2,12.4,5.1,-5.3,7.7,0.7,-8.6,90,82,66,30.19,30.08,12,2,12,0.00
2013-2-3,19.7,9.0,-2.2,7.9,2.4,-5.1,91,76,46,30.08,29.75,12,1,12,0.00
2013-2-4,14.0,5.9,-3.3,8.6,0.9,-9.9,90,80,53,29.89,29.66,21,3,21,0.00
2013-2-5,11.1,1.2,-9.7,-2.5,-8.1,-13.6,92,66,42,30.06,29.89,12,2,12,0.00
2013-2-6,21.6,9.8,-2.8,17.7,2.5,-11.1,91,73,46,30.31,29.94,21,4,21,0.00
2013-2-7,5.9,-3.1,-11.9,-8.8,-13.3,-16.2,92,62,37,30.61,30.31,10,2,10,0.00
2013-2-8,12.1,7.5,1.8,8.1,2.0,-11.9,97,79,49,30.57,30.06,25,11,25,0.00
2013-2-9,8.8,4.1,-1.0,5.5,0.3,-4.7,95,84,81,30.33,29.98,20,5,20,0.00
2013-2-10,21.0,6.5,-7.1,7.3,-1.4,-10.6,87,71,48,30.51,30.33,7,1,7,0.01
2013-2-11,30.1,22.4,8.4,29.1,14.4,-1.1,97,74,44,30.38,29.57,15,4,15,0.00
2013-2-12,30.6,27.7,25.0,29.9,26.1,23.3,97,94,91,29.75,29.52,18,4,18,0.00
2013-2-13,28.3,23.8,21.2,23.3,21.5,19.4,94,91,80,29.80,29.73,14,2,14,0.00
2013-2-14,26.7,23.2,19.8,22.4,19.4,17.5,95,86,71,29.98,29.74,9,1,9,0.00
2013-2-15,36.1,27.9,20.9,29.2,22.7,17.0,91,81,65,29.95,29.85,17,3,17,0.00
2013-2-16,25.7,19.4,9.2,19.3,12.7,4.3,92,75,60,29.95,29.87,12,2,12,0.00
2013-2-17,9.2,6.0,2.6,4.6,1.6,-1.2,88,82,74,29.87,29.52,26,5,26,0.00
2013-2-18,12.1,3.8,-2.6,4.0,-2.3,-6.2,86,76,63,30.19,29.68,23,6,23,0.00
2013-2-19,36.3,18.6,-0.1,23.0,4.3,-6.0,88,57,28,30.22,29.75,23,6,23,0.00
2013-2-20,21.1,17.9,14.2,18.6,15.6,11.8,92,90,88,29.63,29.48,23,6,23,0.00
2013-2-21,18.7,9.0,3.4,17.1,6.1,0.2,96,88,83,30.34,29.64,14,2,14,0.00
2013-2-22,30.0,20.9,14.1,22.1,17.3,12.2,93,86,69,30.48,30.31,12,2,12,0.01
2013-2-23,26.5,23.9,20.1,25.0,21.3,16.8,95,90,84,30.32,29.95,17,8,17,0.00
2013-2-24,28.6,26.2,24.3,26.8,24.6,22.5,96,93,90,29.96,29.78,14,3,14,0.00
2013-2-25,31.7,26.1,19.5,27.2,23.4,17.8,95,89,81,30.25,29.90,7,1,7,0.00
2013-2-26,33.4,29.0,23.7,25.4,23.5,22.0,94,81,65,30.34,30.20,14,3,14,0.06
2013-2-27,30.4,26.7,25.1,25.6,23.1,20.2,94,86,79,30.20,29.68,33,15,33,0.00
2013-2-28,33.6,28.8,24.8,31.6,27.0,22.9,96,93,88,29.69,29.55,16,4,16,0.15
2013-3-1,30.2,26.0,23.0,27.2,24.3,21.3,100,93,87,29.70,29.54,7,1,7,0.08
2013-3-2,25.9,23.6,21.8,23.8,22.1,20.3,96,94,90,29.72,29.67,11,2,12,0.00
2013-3-3,25.0,21.3,18.1,23.0,19.7,16.7,95,94,91,29.69,29.62,12,1,12,0.01
2013-3-4,18.8,17.2,16.1,17.0,15.3,14.2,95,92,87,29.88,29.61,9,2,9,0.00
2013-3-5,33.4,25.1,16.5,30.4,23.3,14.8,100,93,88,30.14,29.88,16,2,16,0.16
2013-3-6,31.7,28.0,23.4,27.2,23.4,18.3,94,83,70,30.25,30.14,23,10,23,0.01
2013-3-7,27.5,24.0,21.6,20.9,18.8,16.8,87,80,72,30.25,30.16,18,6,18,0.00
2013-3-8,41.3,29.7,22.5,24.6,20.4,18.4,87,70,43,30.30,30.14,16,2,16,0.19
2013-3-9,47.0,29.9,14.7,24.5,18.9,11.0,100,67,34,30.37,30.27,12,1,12,0.00
2013-3-10,49.8,35.4,21.5,25.7,21.3,16.5,87,58,29,30.36,30.16,13,4,13,0.00
2013-3-11,51.9,39.8,30.9,29.3,26.4,22.9,81,60,35,30.18,29.97,17,4,17,0.00
2013-3-12,43.4,39.2,33.4,40.5,34.1,22.3,100,84,49,29.99,29.68,20,8,20,0.45
2013-3-13,33.7,30.3,24.3,32.3,27.3,21.9,97,89,74,29.77,29.70,12,2,12,0.05
2013-3-14,24.7,18.6,7.4,23.1,15.1,3.2,94,86,75,29.82,29.65,16,3,16,0.02
2013-3-15,25.8,10.4,4.0,18.1,5.5,1.0,93,82,45,29.83,29.62,9,1,12,0.02
2013-3-16,18.1,13.3,6.7,14.5,8.1,3.2,91,80,68,29.91,29.69,12,1,12,0.00
2013-3-17,17.4,8.1,1.4,8.0,-0.2,-6.2,90,70,44,30.35,29.90,20,3,20,0.00
2013-3-18,25.7,13.8,-2.6,3.0,-2.3,-7.8,80,51,31,30.47,30.24,15,2,15,0.02
2013-3-19,22.6,18.6,16.2,16.3,13.0,0.7,93,81,38,30.25,29.75,34,14,35,0.00
2013-3-20,22.9,19.0,14.7,20.4,17.1,12.8,94,92,88,29.76,29.61,15,3,15,0.00
2013-3-21,29.0,20.4,10.9,18.4,15.2,7.3,93,81,57,29.71,29.63,13,3,13,0.10
2013-3-22,25.6,17.0,5.7,21.6,13.2,2.3,93,85,71,29.69,29.63,12,2,12,0.01
2013-3-23,25.3,21.8,17.0,23.6,19.8,15.1,94,92,88,29.73,29.53,20,5,20,0.00
2013-3-24,31.7,26.4,22.3,27.5,23.8,20.3,95,90,82,29.83,29.72,12,2,12,0.06
2013-3-25,37.6,28.5,16.4,26.4,22.3,14.7,100,79,55,29.81,29.61,14,3,14,0.18
2013-3-26,36.0,29.4,19.0,26.8,22.9,17.1,93,77,65,29.76,29.62,14,3,14,0.03
2013-3-27,34.8,29.5,23.2,30.7,26.0,19.7,96,87,73,29.91,29.73,12,1,12,0.04
2013-3-28,40.1,33.1,27.8,33.8,30.0,26.6,97,89,71,30.02,29.90,12,2,12,0.06
2013-3-29,42.7,34.5,30.3,33.4,30.2,27.7,96,85,60,30.02,29.97,13,2,13,0.02
2013-3-30,42.1,33.1,24.8,28.2,20.8,13.1,95,64,35,30.09,30.01,13,2,13,0.00
2013-3-31,46.6,33.7,15.6,26.5,18.7,12.9,90,58,33,30.09,29.76,24,6,24,0.00
2013-4-1,41.6,31.9,18.7,35.4,28.6,14.7,95,88,64,29.76,29.45,14,5,15,0.06
2013-4-2,21.7,17.1,12.7,15.6,12.1,8.0,92,81,62,29.79,29.64,21,6,21,0.00
2013-4-3,23.5,19.6,13.9,17.9,13.6,8.8,90,78,69,30.10,29.78,21,6,21,0.01
2013-4-4,42.4,30.1,17.0,18.1,13.0,9.2,75,52,30,30.21,29.91,20,5,20,0.15
2013-4-5,39.7,32.2,22.3,28.3,21.1,13.7,91,65,45,29.91,29.72,20,4,20,0.01
2013-4-6,27.8,20.1,12.1,14.8,6.9,2.7,79,57,39,30.34,29.84,23,6,23,0.01
2013-4-7,44.1,32.5,17.0,31.7,17.0,6.7,77,54,40,30.34,29.84,24,8,24,0.00
2013-4-8,43.0,35.8,31.5,32.9,30.1,26.6,95,81,60,30.11,29.85,15,3,15,0.03
2013-4-9,37.5,33.9,31.7,36.7,32.0,27.9,100,93,69,30.05,29.85,21,5,21,0.48
2013-4-10,43.5,36.7,31.8,37.7,33.1,27.9,100,88,67,29.99,29.90,10,1,10,0.06
2013-4-11,35.5,30.6,23.4,28.0,18.9,13.7,92,63,42,30.21,29.88,14,3,14,0.00
2013-4-12,26.6,25.0,22.3,24.2,18.6,11.5,94,78,55,30.23,29.88,31,12,31,0.00
2013-4-13,36.7,30.4,25.5,33.5,28.5,23.3,96,92,85,29.90,29.81,17,3,18,0.25
2013-4-14,39.2,33.4,28.7,35.0,30.3,27.0,97,89,65,30.20,29.88,12,2,12,0.13
2013-4-15,49.3,37.9,24.4,30.7,27.4,23.2,96,70,39,30.36,30.19,13,3,13,0.00
2013-4-16,50.7,43.8,35.4,46.7,38.3,30.1,97,82,63,30.28,29.87,24,7,24,0.33
2013-4-17,47.7,38.2,28.9,39.4,27.5,14.8,95,68,42,30.36,29.98,18,4,18,0.24
2013-4-18,47.9,36.3,27.4,39.3,24.6,15.3,83,63,45,30.41,29.96,21,8,21,0.01
2013-4-19,66.2,57.3,42.7,55.2,49.0,38.7,95,75,50,29.96,29.43,27,11,27,0.74
2013-4-20,42.4,36.5,27.1,40.8,29.6,21.2,97,78,50,30.17,29.54,20,5,20,0.48
2013-4-21,38.6,29.2,21.5,22.0,17.8,12.7,90,65,36,30.73,30.17,25,4,25,0.01
2013-4-22,46.2,34.2,19.4,21.3,16.0,12.4,84,50,27,30.79,30.61,22,8,22,0.00
2013-4-23,44.6,35.5,26.0,34.1,26.2,16.4,92,69,49,30.61,30.19,21,10,21,0.00
2013-4-24,66.0,50.5,36.0,50.0,40.3,30.0,96,72,29,30.19,29.62,23,6,23,0.01
2013-4-25,54.1,41.2,28.9,47.7,30.8,19.8,91,68,42,30.31,29.59,21,5,21,0.03
2013-4-26,53.7,39.0,24.5,33.6,26.2,21.3,92,63,35,30.44,30.31,15,3,15,0.00
2013-4-27,56.3,42.0,28.0,35.2,28.3,22.5,96,63,30,30.43,30.30,12,2,12,0.00
2013-4-28,63.1,47.9,27.9,33.6,29.7,25.1,92,54,29,30.33,30.16,13,3,13,0.00
2013-4-29,64.1,52.9,42.6,39.8,35.1,30.6,73,52,36,30.19,30.09,15,4,15,0.00
2013-4-30,66.0,54.6,40.3,45.0,40.0,33.1,86,60,38,30.29,30.17,12,2,12,0.00
2013-5-1,70.5,57.3,37.0,42.6,36.9,31.0,84,48,34,30.41,30.29,12,2,12,0.00
2013-5-2,73.8,55.0,37.7,43.3,38.3,29.9,84,56,32,30.41,30.33,20,4,20,0.00
2013-5-3,63.5,51.5,38.5,41.3,36.4,29.4,78,57,42,30.49,30.34,20,6,20,0.00
2013-5-4,68.0,55.1,36.3,43.3,36.3,30.7,96,54,27,30.35,30.18,13,3,13,0.00
2013-5-5,72.0,57.2,37.6,41.0,35.7,32.6,83,48,26,30.22,30.08,12,3,12,0.00
2013-5-6,74.9,59.6,39.1,43.1,36.8,31.4,90,47,27,30.15,29.99,14,2,14,0.00
2013-5-7,78.4,61.6,42.1,42.0,34.4,28.3,77,40,21,30.08,29.99,14,2,14,0.00
2013-5-8,73.8,60.6,43.5,52.8,43.3,29.2,91,56,27,30.12,30.02,24,7,24,0.01
2013-5-9,64.3,55.5,51.9,57.7,53.3,51.1,100,93,70,30.02,29.81,17,4,17,1.24
2013-5-10,69.5,57.6,50.0,56.4,51.7,48.1,100,83,52,29.92,29.80,17,2,17,0.01
2013-5-11,59.5,55.0,47.5,57.4,53.1,46.7,97,93,87,29.80,29.55,15,5,15,0.49
2013-5-12,54.5,45.9,35.0,48.3,42.2,27.2,100,87,63,29.67,29.52,14,2,14,0.02
2013-5-13,42.8,36.1,31.6,30.9,27.2,23.9,87,70,53,30.03,29.65,22,5,22,0.00
2013-5-14,46.9,38.1,27.4,30.6,26.9,24.1,92,66,41,30.06,29.98,16,3,16,0.00
2013-5-15,58.7,43.6,29.3,45.4,30.9,20.9,97,67,26,30.01,29.58,24,6,24,0.31
2013-5-16,60.7,49.2,42.8,48.0,42.8,38.3,100,80,49,29.80,29.55,20,4,20,0.00
2013-5-17,55.1,45.1,39.3,41.0,38.4,35.8,96,79,51,30.20,29.80,14,3,14,0.02
2013-5-18,61.9,48.6,33.7,42.8,37.4,32.6,97,69,39,30.30,30.20,13,2,13,0.00
2013-5-19,65.3,52.2,37.8,47.1,39.4,29.5,96,67,31,30.29,30.09,20,4,20,0.13
2013-5-20,65.3,54.5,48.2,57.9,51.6,47.1,100,91,70,30.09,29.91,5,0,13,1.17
2013-5-21,52.5,49.9,45.3,51.3,48.3,44.0,97,94,90,30.01,29.85,10,4,23,0.85
2013-5-22,59.2,50.2,45.0,55.8,48.9,43.9,100,95,87,29.88,29.80,8,3,20,0.28
2013-5-23,67.8,58.8,50.3,62.8,57.0,49.7,100,94,80,29.81,29.65,9,1,18,1.54
2013-5-24,55.0,46.8,39.5,55.0,46.3,38.5,100,98,96,29.92,29.61,6,1,17,0.66
2013-5-25,39.6,36.2,31.8,38.8,35.3,31.0,97,97,96,29.93,29.79,9,2,20,0.77
2013-5-26,41.4,36.4,32.2,40.3,35.6,31.5,100,97,94,30.02,29.76,5,1,17,0.17
2013-5-27,57.3,44.3,29.7,42.1,34.8,29.0,100,73,44,30.17,30.02,6,1,20,0.00
2013-5-28,67.3,52.1,33.8,41.6,37.0,32.3,97,61,32,30.22,30.11,6,1,13,0.00
2013-5-29,55.3,51.7,49.6,54.5,46.8,37.9,97,84,61,30.12,29.91,9,2,20,0.09
2013-5-30,74.8,63.9,55.4,60.7,58.7,55.4,100,85,57,30.02,29.93,6,1,16,0.00
2013-5-31,83.3,70.2,55.3,66.9,61.6,53.9,100,77,51,30.01,29.83,6,1,15,0.00
2013-6-1,83.2,71.7,59.7,67.1,61.9,57.6,95,73,50,29.87,29.72,7,1,16,0.00
2013-6-2,81.7,67.9,59.9,69.1,63.3,58.8,100,87,60,29.78,29.54,12,1,25,0.25
2013-6-3,66.4,58.4,46.2,58.5,53.5,43.2,97,85,68,29.76,29.66,6,1,14,0.00
2013-6-4,56.5,47.4,43.2,42.9,40.7,37.8,91,78,55,30.04,29.74,6,1,16,0.00
2013-6-5,61.8,50.0,37.3,41.3,38.4,34.5,92,67,39,30.17,30.04,5,1,13,0.00
2013-6-6,54.9,48.1,39.6,49.6,44.0,38.0,94,86,66,30.18,30.11,7,0,14,0.08
2013-6-7,49.7,47.8,45.6,46.7,45.0,42.4,98,90,79,30.12,29.91,14,5,26,0.40
2013-6-8,59.2,52.7,47.8,55.5,51.2,46.5,100,95,85,29.96,29.74,13,2,22,0.57
2013-6-9,63.8,55.0,48.6,56.4,52.8,47.3,100,93,73,30.15,29.95,3,0,13,0.26
2013-6-10,71.6,57.4,44.7,52.9,47.9,40.8,100,74,36,30.19,29.95,6,1,12,0.00
2013-6-11,57.3,51.3,48.6,50.9,49.4,47.5,97,94,73,29.95,29.58,9,3,17,0.68
2013-6-12,53.1,50.5,48.0,52.3,49.7,47.2,100,97,96,29.81,29.56,6,1,21,0.15
2013-6-13,67.3,55.4,46.8,55.9,49.5,44.3,100,83,44,29.80,29.66,5,1,10,0.00
2013-6-14,72.0,58.2,47.4,52.9,48.0,40.8,97,72,38,29.75,29.65,6,0,15,0.00
2013-6-15,65.3,55.2,42.8,45.2,41.7,36.7,88,62,45,29.86,29.76,6,1,16,0.00
2013-6-16,67.0,55.2,46.6,54.7,48.6,42.8,100,80,50,29.86,29.66,7,1,13,0.48
2013-6-17,68.0,57.5,51.2,57.4,52.9,48.8,100,85,62,29.85,29.69,7,1,20,0.00
2013-6-18,63.5,52.7,42.7,48.8,44.5,41.3,95,75,48,29.95,29.84,3,0,10,0.00
2013-6-19,64.3,52.7,41.0,46.8,42.7,39.4,96,72,43,30.15,29.93,6,1,15,0.00
2013-6-20,68.4,55.3,40.3,47.1,43.3,39.3,97,68,41,30.23,30.15,7,1,14,0.00
2013-6-21,74.5,59.7,45.7,54.0,49.5,44.1,95,72,46,30.19,30.16,3,1,13,0.00
2013-6-22,66.5,59.5,53.5,60.9,56.3,50.2,96,89,77,30.18,30.08,2,0,5,0.01
2013-6-23,75.7,65.6,58.0,68.7,62.9,56.9,100,92,76,30.10,29.90,3,0,10,0.61
2013-6-24,79.8,68.9,59.5,69.4,65.7,58.6,100,91,67,29.91,29.77,3,0,20,0.12
2013-6-25,79.3,67.0,58.1,69.2,63.1,57.3,100,88,68,29.83,29.68,6,1,14,0.01
2013-6-26,70.2,64.6,60.6,66.1,62.7,59.7,100,94,83,29.76,29.67,3,0,10,0.04
2013-6-27,75.1,66.1,60.3,66.6,62.6,59.4,100,89,66,29.75,29.69,7,1,15,0.08
2013-6-28,61.8,58.5,54.7,59.4,56.6,53.6,97,93,87,29.72,29.45,14,6,25,0.38
2013-6-29,75.1,63.4,58.9,65.1,61.2,57.9,100,93,65,29.61,29.45,8,1,16,0.70
2013-6-30,75.3,65.1,58.0,63.8,60.9,58.0,100,87,65,29.89,29.61,6,0,12,0.00
2013-7-1,71.0,63.7,58.3,63.0,60.0,54.4,100,88,73,30.07,29.88,2,0,6,0.15
2013-7-2,58.8,56.9,54.1,58.0,55.7,52.6,100,96,92,30.15,30.03,9,4,17,0.84
2013-7-3,76.0,65.7,57.0,71.6,64.0,56.1,100,94,78,30.15,30.07,5,0,12,0.47
2013-7-4,82.7,69.6,62.4,71.0,66.5,62.4,100,91,62,30.14,30.01,3,0,13,0.07
2013-7-5,79.9,71.5,63.7,70.1,66.7,62.8,100,86,67,30.06,29.95,5,0,13,0.00
2013-7-6,78.3,68.7,63.6,67.5,64.4,60.2,100,87,55,29.98,29.91,3,0,13,0.00
2013-7-7,77.7,68.4,59.7,66.1,62.1,58.2,97,82,58,29.94,29.86,3,0,16,0.04
2013-7-8,72.2,64.9,61.5,68.5,63.6,61.5,100,96,84,30.00,29.87,2,0,6,0.27
2013-7-9,73.2,66.2,62.4,68.3,63.8,61.2,97,92,81,30.04,29.96,7,2,13,0.05
2013-7-10,70.6,65.7,62.0,66.0,63.5,60.8,97,93,83,29.98,29.69,8,2,17,0.01
2013-7-11,73.4,64.5,54.4,66.0,60.3,52.7,100,87,61,29.97,29.68,5,0,14,0.48
2013-7-12,76.2,61.7,50.0,58.2,53.6,49.2,100,77,47,30.19,29.97,3,0,10,0.00
2013-7-13,80.1,68.2,55.9,63.2,58.6,52.8,95,73,48,30.26,30.19,5,1,10,0.00
2013-7-14,81.7,70.5,60.5,68.0,63.6,59.6,100,80,56,30.25,30.15,5,0,9,0.00
2013-7-15,84.6,71.3,61.0,68.9,64.9,60.9,100,82,56,30.16,30.06,5,0,12,0.00
2013-7-16,83.1,72.1,62.8,68.3,63.5,59.2,100,77,49,30.13,30.08,5,0,12,0.00
2013-7-17,86.1,71.7,60.3,70.5,64.9,58.6,100,81,54,30.13,29.89,5,1,14,0.16
2013-7-18,79.8,69.7,63.9,69.6,65.8,63.0,100,88,66,29.97,29.86,3,0,10,0.09
2013-7-19,85.5,72.9,63.8,72.3,67.6,63.0,100,86,59,29.87,29.52,8,2,23,0.22
2013-7-20,72.2,65.5,55.2,67.3,62.8,53.8,100,91,73,29.76,29.55,5,0,15,0.16
2013-7-21,68.4,57.8,47.6,54.4,49.9,45.9,98,77,51,30.02,29.76,3,0,12,0.00
2013-7-22,72.6,60.3,44.9,62.8,53.8,43.8,97,81,51,30.02,29.84,7,1,12,0.00
2013-7-23,67.5,63.0,59.9,65.6,61.6,58.3,100,95,90,29.84,29.50,3,0,9,0.30
2013-7-24,61.9,56.8,48.6,61.9,55.4,46.4,100,95,79,29.99,29.50,3,0,15,0.14
2013-7-25,67.9,55.6,44.6,57.3,48.9,42.3,94,80,57,30.12,29.99,3,0,10,0.00
2013-7-26,69.0,60.7,53.5,60.2,55.6,50.9,93,84,71,30.10,29.94,5,0,9,0.00
2013-7-27,75.9,64.7,55.8,60.5,57.3,54.4,96,79,52,30.00,29.93,5,0,9,0.00
2013-7-28,64.0,60.8,57.8,59.6,57.5,55.7,94,89,85,29.96,29.93,2,0,6,0.00
2013-7-30,57.0,56.3,55.9,53.7,53.3,52.7,92,90,87,30.05,30.03,1,0,14,0.01
2013-7-31,72.8,61.6,51.5,58.8,54.9,50.4,100,80,55,30.09,29.99,3,0,12,0.00
2013-8-1,74.0,63.7,53.5,60.0,56.7,52.1,97,79,54,29.99,29.77,10,3,20,0.00
2013-8-2,72.0,63.1,56.4,61.5,57.6,52.8,100,83,56,29.77,29.68,5,0,14,0.05
2013-8-3,64.7,57.2,52.9,57.7,54.3,52.1,100,91,67,29.77,29.67,6,0,20,0.29
2013-8-4,65.1,55.2,50.0,57.0,53.0,48.3,100,93,68,29.83,29.73,6,0,17,0.18
2013-8-5,60.5,51.4,46.0,49.8,46.3,41.3,97,84,51,30.02,29.83,7,1,18,0.11
2013-8-6,71.2,58.5,45.4,55.0,49.7,44.6,100,75,45,30.11,30.02,3,0,10,0.00
2013-8-7,71.9,61.5,49.3,58.0,53.6,48.3,97,77,52,30.13,30.01,9,2,14,0.00
2013-8-8,74.4,64.6,57.3,65.7,60.9,54.8,97,88,72,30.01,29.92,8,1,14,0.14
2013-8-9,69.1,65.0,62.6,67.3,64.5,62.2,100,98,92,29.94,29.69,5,0,10,0.44
2013-8-10,64.0,59.3,51.8,64.0,53.6,48.3,100,82,63,29.95,29.69,5,1,20,0.00
2013-8-11,69.5,57.4,45.4,54.1,49.9,44.3,100,78,54,30.02,29.94,5,1,15,0.00
2013-8-12,71.2,60.6,51.5,56.1,52.6,49.7,97,77,52,29.98,29.87,6,1,12,0.00
2013-8-13,66.2,58.9,51.3,59.7,55.5,50.1,97,89,73,29.87,29.62,6,1,13,0.00
2013-8-14,61.2,55.2,49.5,57.9,51.7,46.9,96,88,75,29.86,29.59,5,0,17,0.00
2013-8-15,66.5,55.5,44.9,51.2,48.2,43.8,97,78,56,30.05,29.86,5,1,15,0.00
2013-8-16,69.3,57.6,48.8,56.8,51.6,47.2,100,82,57,30.17,30.03,5,0,12,0.45
2013-8-17,67.5,56.3,48.2,56.0,50.2,47.0,100,82,52,30.26,30.18,3,0,12,0.00
2013-8-18,72.7,57.9,44.5,57.2,51.4,44.5,100,81,54,30.26,30.04,5,0,10,0.00
2013-8-19,75.2,63.1,50.9,61.7,56.7,50.1,100,81,60,30.04,29.89,6,0,20,0.00
2013-8-20,75.9,65.5,57.1,61.2,58.3,55.8,97,79,51,30.04,29.94,5,0,17,0.00
2013-8-21,79.4,67.4,57.0,64.5,60.0,56.2,100,79,54,30.08,29.93,7,1,17,0.00
2013-8-22,76.7,67.3,58.9,66.9,62.0,57.7,97,84,66,29.94,29.73,3,0,13,0.05
2013-8-23,65.3,57.8,46.5,54.5,48.6,44.5,94,73,51,30.16,29.89,6,1,20,0.06
2013-8-24,70.8,56.1,43.6,51.1,47.1,42.9,100,76,39,30.32,30.16,3,0,12,0.00
2013-8-25,72.1,57.8,45.5,54.6,50.2,45.4,100,79,46,30.35,30.09,6,0,10,0.00
2013-8-26,63.0,59.2,54.9,63.0,58.5,51.9,100,98,81,30.08,29.85,2,0,6,0.21
2013-8-27,77.7,66.5,60.6,66.5,62.6,60.6,100,89,59,29.89,29.81,3,0,10,0.00
2013-8-28,76.3,65.8,60.1,67.3,62.7,59.7,100,90,69,29.94,29.83,8,1,16,0.05
2013-8-29,67.2,61.5,58.1,60.2,58.6,56.7,97,90,77,30.03,29.93,7,2,13,0.00
2013-8-30,73.9,63.3,57.7,66.6,60.6,56.6,100,91,75,29.96,29.74,2,0,17,0.59
2013-8-31,71.1,64.6,58.0,66.7,62.9,58.0,100,95,79,29.76,29.71,2,0,6,0.07
2013-9-1,76.0,67.1,60.2,64.2,61.8,59.8,100,84,59,29.83,29.72,5,0,12,0.02
2013-9-2,65.9,63.3,59.6,63.0,61.2,59.4,100,93,87,29.83,29.67,9,4,20,0.59
2013-9-3,66.0,59.8,57.0,60.8,58.5,56.9,100,96,80,29.73,29.64,2,0,7,0.07
2013-9-4,66.8,56.6,51.5,56.8,53.0,49.8,100,88,56,29.85,29.72,6,1,16,0.02
2013-9-5,56.0,47.9,38.7,49.5,41.4,35.5,97,80,52,30.11,29.84,2,0,15,0.00
2013-9-6,61.0,48.0,33.7,43.7,38.4,32.7,97,72,44,30.21,30.03,5,1,15,0.00
2013-9-7,68.3,54.4,45.5,51.9,46.8,41.1,96,78,50,30.03,29.76,6,1,16,0.02
2013-9-8,54.0,48.2,38.1,52.7,43.7,34.3,100,85,61,30.03,29.69,3,1,25,0.16
2013-9-9,61.2,47.6,33.8,45.9,39.9,32.8,100,77,49,30.18,30.03,5,1,13,0.00
2013-9-10,60.5,54.8,48.2,60.2,53.1,43.6,100,94,77,30.08,29.98,1,0,3,0.10
2013-9-11,83.3,69.2,60.3,71.8,65.3,60.3,100,89,58,30.00,29.82,5,1,16,1.17
2013-9-12,69.2,63.8,61.1,67.2,63.4,61.1,100,98,92,29.89,29.57,2,0,9,0.57
2013-9-13,61.2,54.8,48.8,61.2,54.7,48.8,100,100,97,29.74,29.55,3,0,13,0.52
2013-9-14,50.0,46.9,45.2,49.3,46.9,45.2,100,100,96,30.03,29.74,2,0,12,0.40
2013-9-15,59.5,49.1,39.2,51.2,46.0,39.2,100,90,70,30.10,29.98,3,0,12,0.00
2013-9-16,50.3,43.4,32.0,48.9,41.6,31.0,100,93,79,30.28,29.95,3,0,15,0.28
2013-9-17,56.7,42.6,30.5,42.7,37.0,29.6,100,83,54,30.46,30.29,5,0,13,0.29
2013-9-18,65.4,48.8,36.2,46.9,41.7,36.0,100,80,43,30.32,30.12,5,0,13,0.00
2013-9-19,70.9,53.5,39.7,50.1,45.6,39.7,100,78,39,30.14,30.02,5,0,12,0.00
2013-9-20,73.5,58.9,46.0,54.6,50.4,45.2,100,76,42,30.07,29.93,7,2,13,0.00
2013-9-22,55.7,48.6,40.8,54.5,47.6,39.6,100,96,89,29.76,29.52,2,0,12,1.10
2013-9-23,41.0,38.9,35.8,39.4,37.5,34.9,100,95,89,29.98,29.76,3,1,17,0.04
2013-9-24,43.9,39.9,36.8,40.4,37.3,35.3,97,90,85,29.98,29.88,3,1,15,0.00
2013-9-25,48.8,43.0,36.4,44.5,41.0,35.6,100,93,81,30.01,29.90,2,0,7,0.00
2013-9-26,51.6,46.5,40.6,47.3,44.1,39.5,97,91,83,30.17,30.01,3,0,10,0.00
2013-9-27,64.8,51.9,44.0,51.8,47.4,42.9,100,86,58,30.27,30.16,3,0,9,0.00
2013-9-28,69.5,52.8,40.2,53.8,47.6,40.2,100,85,51,30.35,30.23,3,0,9,0.00
2013-9-29,68.2,54.9,43.1,52.3,47.4,43.1,100,79,46,30.23,30.04,6,1,12,0.00
2013-9-30,68.8,54.2,41.7,51.4,46.7,41.2,100,79,46,30.07,29.94,5,0,6,0.00
2013-10-1,69.2,54.5,41.2,54.4,48.8,40.8,100,83,50,29.97,29.84,5,0,13,0.00
2013-10-2,68.4,56.6,49.2,57.7,49.8,40.5,100,80,52,29.89,29.74,8,1,17,0.00
2013-10-3,64.2,53.9,43.7,45.9,42.3,39.0,92,67,45,30.04,29.89,6,1,14,0.00
2013-10-4,59.5,50.0,42.5,47.4,43.3,39.8,96,79,56,30.09,30.03,3,0,7,0.00
2013-10-5,57.6,48.4,41.7,43.1,38.5,32.2,91,70,39,30.16,30.07,2,0,7,0.00
2013-10-6,53.3,44.7,40.7,43.8,37.8,33.3,97,78,58,30.20,30.08,10,4,20,0.25
2013-10-7,62.5,52.7,44.8,58.6,50.4,43.7,97,92,85,30.08,29.63,17,7,31,0.00
2013-10-8,49.8,42.0,37.3,38.4,36.1,34.3,94,80,60,30.39,30.00,5,1,14,0.00
2013-10-9,60.4,44.9,32.3,40.5,36.1,31.5,100,75,38,30.48,30.34,7,1,13,0.00
2013-10-10,65.6,50.0,36.7,44.9,39.1,35.3,97,70,38,30.34,30.18,3,0,9,0.00
2013-10-11,72.2,54.0,37.6,48.8,40.9,30.0,88,64,32,30.18,30.10,3,0,12,0.00
2013-10-12,61.5,53.8,48.0,52.3,48.8,46.3,95,83,69,30.33,30.17,8,3,14,0.00
2013-10-13,51.6,47.4,44.4,48.6,46.1,43.6,100,96,87,30.39,30.33,8,2,14,0.00
2013-10-14,50.4,46.6,42.2,50.4,46.6,42.2,100,100,97,30.32,30.22,0,0,3,0.17
2013-10-15,51.7,47.3,46.3,49.4,47.2,46.3,100,100,90,30.27,30.11,1,0,6,0.00
2013-10-16,59.4,51.7,48.9,50.6,47.5,43.9,94,86,70,30.12,29.78,10,3,18,0.00
2013-10-17,56.8,50.5,43.7,51.5,46.4,42.3,100,86,66,29.79,29.67,3,0,12,0.14
2013-10-18,51.1,46.3,40.7,49.4,44.5,38.6,100,93,82,29.80,29.55,7,1,17,0.47
2013-10-19,55.9,47.2,38.9,42.3,39.3,36.8,93,75,56,29.88,29.64,5,1,13,0.00
2013-10-20,49.7,43.4,36.0,43.1,35.2,27.1,96,75,44,29.92,29.57,7,2,20,0.07
2013-10-21,52.2,43.2,29.7,40.4,35.2,27.5,94,74,60,30.05,29.89,6,1,12,0.02
2013-10-22,49.3,42.0,30.0,43.6,37.3,29.0,97,85,65,29.89,29.62,7,1,16,0.18
2013-10-23,42.5,33.9,29.2,34.4,29.3,25.9,98,84,63,29.72,29.60,5,0,13,0.00
2013-10-24,34.4,31.0,26.7,30.0,26.7,21.5,95,84,72,29.80,29.60,6,1,18,0.00
2013-10-25,33.7,31.3,28.8,30.1,27.2,23.9,95,85,75,30.08,29.80,3,0,12,0.03
2013-10-26,34.7,30.3,24.1,31.7,27.8,21.9,96,90,83,30.08,29.81,8,2,16,0.03
2013-10-27,39.1,34.8,31.1,35.2,30.6,26.2,93,84,72,29.96,29.74,5,1,15,0.03
2013-10-28,34.7,30.4,21.9,33.7,26.8,19.2,99,86,77,30.36,29.96,5,1,17,0.05
2013-10-29,34.4,24.7,17.9,23.9,20.3,16.5,96,84,60,30.47,30.36,3,0,12,0.01
2013-10-30,35.0,28.1,21.0,29.1,23.8,19.5,95,84,63,30.37,30.19,5,0,12,0.00
2013-10-31,50.9,39.1,29.8,50.9,36.6,27.5,100,91,71,30.24,29.67,7,2,15,0.50
2013-11-1,58.4,53.9,45.3,57.2,50.0,40.4,100,87,62,29.66,29.16,13,5,32,0.46
2013-11-2,46.3,40.2,29.3,43.8,38.9,27.8,100,95,87,29.83,29.50,6,0,14,0.08
2013-11-3,29.3,24.0,17.5,27.9,19.0,14.0,95,81,63,30.48,29.83,6,1,13,0.01
2013-11-4,33.4,23.3,14.0,18.2,15.3,11.6,92,73,49,30.71,30.49,5,0,9,0.00
2013-11-5,41.1,31.7,24.9,26.8,19.9,14.7,82,62,42,30.71,30.45,9,2,15,0.00
2013-11-6,52.3,41.2,30.3,41.1,32.6,25.8,87,72,49,30.45,29.84,12,2,20,0.00
2013-11-7,49.0,40.1,28.2,47.2,38.0,25.9,100,92,77,29.84,29.64,7,1,17,0.51
2013-11-8,30.1,27.6,26.4,26.2,24.5,22.2,92,88,80,29.99,29.73,5,1,17,0.00
2013-11-9,30.0,26.8,24.2,25.1,21.4,19.3,94,80,68,30.13,29.99,5,1,15,0.01
2013-11-10,35.5,30.6,26.6,33.9,29.5,24.8,100,96,93,29.99,29.67,6,1,14,0.20
2013-11-11,31.0,28.2,25.5,31.0,27.0,24.0,100,95,92,30.01,29.76,3,0,12,0.00
2013-11-12,30.6,19.1,15.9,29.1,17.2,13.7,96,92,90,30.16,29.80,3,1,12,0.00
2013-11-13,20.3,15.9,12.0,17.6,13.2,9.9,92,89,81,30.27,30.04,2,0,10,0.00
2013-11-14,30.9,26.4,17.3,28.7,24.0,15.1,93,90,88,30.07,29.99,2,0,7,0.00
2013-11-15,43.2,34.2,28.7,31.0,26.0,22.2,91,73,52,30.19,30.06,5,0,12,0.46
2013-11-16,50.1,38.0,30.4,31.1,25.8,22.9,88,64,37,30.30,30.18,5,0,10,0.11
2013-11-17,44.4,40.0,35.4,41.8,32.7,22.9,97,76,56,30.29,29.81,10,4,23,0.02
2013-11-18,50.4,43.0,33.4,50.4,40.4,29.3,100,91,78,29.80,29.38,13,4,24,0.57
2013-11-19,33.4,24.1,21.2,29.7,19.0,14.6,90,81,68,30.26,29.51,7,2,26,0.00
2013-11-20,28.9,21.4,15.8,15.4,12.6,10.6,87,69,49,30.68,30.26,3,1,18,0.01
2013-11-21,44.0,27.8,14.7,22.1,11.3,3.9,92,56,25,30.68,30.35,3,0,9,0.01
2013-11-22,32.2,29.8,27.7,32.2,24.7,10.9,100,83,47,30.35,29.74,2,0,6,0.08
2013-11-23,33.2,21.9,11.8,33.2,19.2,8.7,100,89,82,29.85,29.68,6,2,23,0.01
2013-11-24,11.7,8.9,4.4,8.7,5.3,-0.9,90,85,76,30.13,29.71,7,2,26,0.00
2013-11-25,20.8,10.2,1.8,13.0,3.3,-1.4,87,74,51,30.36,30.13,5,1,15,0.00
2013-11-26,29.7,25.4,21.1,24.9,18.6,12.1,95,75,65,30.26,30.06,7,2,14,0.00
2013-11-27,43.9,31.7,25.8,43.1,30.8,24.8,97,96,94,30.06,29.32,20,6,31,0.57
2013-11-28,25.6,12.3,5.2,24.6,10.1,2.7,96,90,86,30.39,29.35,5,1,23,0.00
2013-11-29,12.7,7.3,2.4,9.3,4.7,-0.1,99,89,84,30.79,30.39,1,0,6,0.00
2013-11-30,18.7,10.4,-2.3,14.3,5.9,-5.2,91,82,69,30.84,30.39,6,1,14,0.00
2013-12-1,28.2,24.7,17.9,25.8,22.1,13.6,96,90,78,30.39,30.08,6,0,12,0.00
2013-12-2,32.0,30.0,26.7,30.7,28.3,25.0,97,93,89,30.08,29.91,6,2,12,0.02
2013-12-3,37.6,31.4,26.7,32.4,29.2,24.1,100,91,79,29.94,29.88,3,0,7,0.16
2013-12-4,28.5,25.5,20.7,25.1,23.0,19.5,98,90,84,30.20,29.93,3,0,13,0.00
2013-12-5,44.5,31.7,19.5,44.5,29.7,18.3,100,92,84,30.20,29.84,9,3,21,0.15
2013-12-6,43.1,30.1,23.9,43.1,28.4,19.4,100,93,82,30.09,29.87,3,0,14,0.18
2013-12-7,23.9,18.1,11.0,20.9,12.0,6.5,88,77,61,30.42,30.06,8,1,23,0.00
2013-12-8,17.3,12.5,7.5,9.0,6.3,3.8,86,76,63,30.58,30.41,5,0,12,0.00
2013-12-9,28.5,18.6,11.5,27.5,15.1,6.5,97,86,75,30.53,29.84,17,5,30,0.00
2013-12-10,28.3,19.6,10.9,26.9,14.1,5.3,95,79,66,29.86,29.73,7,1,20,0.00
2013-12-11,16.4,11.4,6.0,12.7,8.4,2.4,91,87,79,30.12,29.87,5,1,16,0.00
2013-12-12,6.0,1.1,-7.7,2.9,-3.7,-11.2,87,80,67,30.26,29.96,5,1,12,0.00
2013-12-13,8.8,0.9,-12.4,6.5,-3.2,-16.3,90,82,73,30.44,29.87,5,1,16,0.00
2013-12-14,3.3,-5.8,-17.4,-1.0,-11.6,-21.3,95,76,62,30.70,30.39,12,2,20,0.00
2013-12-15,13.9,9.6,2.8,12.0,7.2,-0.9,94,90,84,30.37,29.56,20,5,33,0.00
2013-12-16,6.8,-1.0,-12.2,4.2,-4.8,-15.9,89,83,75,30.27,29.68,6,1,16,0.00
2013-12-17,8.6,-3.7,-20.2,5.5,-8.3,-24.5,88,80,67,30.33,30.14,8,2,16,0.00
2013-12-18,18.7,14.3,8.9,16.3,11.9,5.8,93,90,87,30.14,29.93,3,0,12,0.00
2013-12-19,25.0,20.3,14.2,23.5,18.5,12.4,94,93,91,30.08,29.90,3,0,13,0.00
2013-12-20,30.7,27.2,24.1,30.7,26.4,22.9,100,97,94,30.11,29.88,6,1,12,0.00
2013-12-21,43.1,35.0,30.7,43.1,35.0,30.7,100,100,100,29.92,29.77,3,0,12,1.02
2013-12-22,31.4,27.6,24.3,31.4,27.3,23.6,100,99,97,29.99,29.75,12,1,21,0.51
2013-12-23,31.1,28.5,19.3,31.1,28.4,18.1,100,99,95,30.10,29.97,0,0,0,0.00
2013-12-24,19.2,8.9,-0.7,18.0,6.8,-3.4,95,91,88,30.24,30.08,0,0,0,0.00
2013-12-25,5.7,-0.3,-7.2,3.2,-3.0,-10.3,91,88,86,30.58,30.25,0,0,0,0.00
2013-12-26,20.8,14.1,5.9,19.6,12.3,3.6,95,92,89,30.50,30.15,0,0,0,0.68
2013-12-27,20.6,17.4,15.4,19.4,15.8,13.7,95,94,92,30.18,30.11,5,0,22,0.00
2013-12-28,29.7,23.5,13.6,29.7,22.8,12.0,100,97,93,30.13,29.95,3,1,12,0.00
2013-12-29,31.4,30.5,29.3,31.4,30.5,29.3,100,100,100,30.00,29.54,5,1,12,0.06
2013-12-30,30.9,10.4,-7.3,30.9,8.4,-10.4,100,91,85,30.19,29.52,5,1,17,0.00
2013-12-31,4.5,-2.2,-7.3,2.4,-5.3,-10.4,91,87,82,30.19,30.07,2,0,5,0.00
2014-1-1,5.0,-2.3,-14.4,2.3,-5.6,-18.1,90,85,82,30.47,30.14,5,1,20,0.00
2014-1-2,0.8,-8.4,-17.9,-2.2,-11.9,-21.7,87,84,81,30.49,30.08,3,0,9,0.00